sensor_id;sensor_type;location;lat;lon;timestamp;P1;durP1;ratioP1;P2;durP2;ratioP2
5937;SDS011;2994;51.220;4.412;2023-05-02T00:01:02;27.13;;;19.30;;
5937;SDS011;2994;51.220;4.412;2023-05-02T00:03:29;27.53;;;20.87;;
5937;SDS011;2994;51.220;4.412;2023-05-02T00:05:56;27.80;;;18.77;;
5937;SDS011;2994;51.220;4.412;2023-05-02T00:08:22;24.20;;;17.57;;
5937;SDS011;2994;51.220;4.412;2023-05-02T00:10:47;21.63;;;16.97;;
5937;SDS011;2994;51.220;4.412;2023-05-02T00:13:13;24.77;;;16.53;;
5937;SDS011;2994;51.220;4.412;2023-05-02T00:15:38;25.67;;;18.17;;
5937;SDS011;2994;51.220;4.412;2023-05-02T00:18:04;29.63;;;19.33;;
5937;SDS011;2994;51.220;4.412;2023-05-02T00:20:29;24.03;;;16.90;;
5937;SDS011;2994;51.220;4.412;2023-05-02T00:22:55;26.47;;;18.23;;
5937;SDS011;2994;51.220;4.412;2023-05-02T00:25:21;27.57;;;17.33;;
5937;SDS011;2994;51.220;4.412;2023-05-02T00:27:47;25.37;;;17.57;;
5937;SDS011;2994;51.220;4.412;2023-05-02T00:30:14;25.80;;;19.70;;
5937;SDS011;2994;51.220;4.412;2023-05-02T00:32:41;23.13;;;16.93;;
5937;SDS011;2994;51.220;4.412;2023-05-02T00:35:07;28.00;;;17.30;;
5937;SDS011;2994;51.220;4.412;2023-05-02T00:37:33;26.33;;;17.57;;
5937;SDS011;2994;51.220;4.412;2023-05-02T00:39:58;24.23;;;17.77;;
5937;SDS011;2994;51.220;4.412;2023-05-02T00:42:23;26.30;;;19.10;;
5937;SDS011;2994;51.220;4.412;2023-05-02T00:44:49;28.40;;;17.87;;
5937;SDS011;2994;51.220;4.412;2023-05-02T00:47:14;24.83;;;18.13;;
5937;SDS011;2994;51.220;4.412;2023-05-02T00:49:40;26.23;;;17.93;;
5937;SDS011;2994;51.220;4.412;2023-05-02T00:52:06;25.73;;;18.80;;
5937;SDS011;2994;51.220;4.412;2023-05-02T00:54:32;30.23;;;20.53;;
5937;SDS011;2994;51.220;4.412;2023-05-02T00:56:58;27.87;;;19.20;;
5937;SDS011;2994;51.220;4.412;2023-05-02T00:59:23;28.23;;;18.60;;
5937;SDS011;2994;51.220;4.412;2023-05-02T01:07:53;24.50;;;16.03;;
5937;SDS011;2994;51.220;4.412;2023-05-02T01:10:48;22.10;;;16.37;;
5937;SDS011;2994;51.220;4.412;2023-05-02T01:13:23;22.07;;;15.53;;
5937;SDS011;2994;51.220;4.412;2023-05-02T01:15:52;24.43;;;17.07;;
5937;SDS011;2994;51.220;4.412;2023-05-02T01:18:21;20.13;;;17.27;;
5937;SDS011;2994;51.220;4.412;2023-05-02T01:20:54;21.83;;;15.37;;
5937;SDS011;2994;51.220;4.412;2023-05-02T01:23:25;24.13;;;17.33;;
5937;SDS011;2994;51.220;4.412;2023-05-02T01:28:54;23.43;;;14.73;;
5937;SDS011;2994;51.220;4.412;2023-05-02T01:31:24;24.00;;;15.80;;
5937;SDS011;2994;51.220;4.412;2023-05-02T01:33:52;19.47;;;13.60;;
5937;SDS011;2994;51.220;4.412;2023-05-02T01:36:19;23.27;;;14.60;;
5937;SDS011;2994;51.220;4.412;2023-05-02T01:38:46;24.97;;;15.20;;
5937;SDS011;2994;51.220;4.412;2023-05-02T01:41:13;24.77;;;15.87;;
5937;SDS011;2994;51.220;4.412;2023-05-02T01:43:40;21.50;;;14.30;;
5937;SDS011;2994;51.220;4.412;2023-05-02T01:46:07;23.10;;;15.30;;
5937;SDS011;2994;51.220;4.412;2023-05-02T01:48:34;21.70;;;15.03;;
5937;SDS011;2994;51.220;4.412;2023-05-02T01:51:00;19.83;;;15.30;;
5937;SDS011;2994;51.220;4.412;2023-05-02T01:53:27;21.33;;;15.40;;
5937;SDS011;2994;51.220;4.412;2023-05-02T01:55:54;17.77;;;14.10;;
5937;SDS011;2994;51.220;4.412;2023-05-02T01:58:21;20.90;;;14.93;;
5937;SDS011;2994;51.220;4.412;2023-05-02T02:00:48;25.43;;;15.47;;
5937;SDS011;2994;51.220;4.412;2023-05-02T02:03:14;22.40;;;15.23;;
5937;SDS011;2994;51.220;4.412;2023-05-02T02:05:41;19.43;;;13.23;;
5937;SDS011;2994;51.220;4.412;2023-05-02T02:08:07;20.93;;;14.50;;
5937;SDS011;2994;51.220;4.412;2023-05-02T02:10:39;17.57;;;13.30;;
5937;SDS011;2994;51.220;4.412;2023-05-02T02:13:17;18.40;;;13.67;;
5937;SDS011;2994;51.220;4.412;2023-05-02T02:15:46;24.97;;;15.10;;
5937;SDS011;2994;51.220;4.412;2023-05-02T02:18:18;19.00;;;13.97;;
5937;SDS011;2994;51.220;4.412;2023-05-02T02:20:46;20.00;;;13.50;;
5937;SDS011;2994;51.220;4.412;2023-05-02T02:23:14;24.13;;;15.83;;
5937;SDS011;2994;51.220;4.412;2023-05-02T02:25:41;16.10;;;13.37;;
5937;SDS011;2994;51.220;4.412;2023-05-02T02:28:07;16.73;;;13.30;;
5937;SDS011;2994;51.220;4.412;2023-05-02T02:30:33;20.30;;;14.00;;
5937;SDS011;2994;51.220;4.412;2023-05-02T02:32:58;21.03;;;14.07;;
5937;SDS011;2994;51.220;4.412;2023-05-02T02:35:25;21.77;;;15.80;;
5937;SDS011;2994;51.220;4.412;2023-05-02T02:41:07;19.97;;;13.33;;
5937;SDS011;2994;51.220;4.412;2023-05-02T02:44:01;16.43;;;12.53;;
5937;SDS011;2994;51.220;4.412;2023-05-02T02:46:57;17.53;;;10.70;;
5937;SDS011;2994;51.220;4.412;2023-05-02T02:49:35;14.03;;;11.40;;
5937;SDS011;2994;51.220;4.412;2023-05-02T02:54:44;14.40;;;10.07;;
5937;SDS011;2994;51.220;4.412;2023-05-02T02:57:15;17.27;;;10.67;;
5937;SDS011;2994;51.220;4.412;2023-05-02T03:02:31;18.23;;;12.20;;
5937;SDS011;2994;51.220;4.412;2023-05-02T03:04:57;16.00;;;10.80;;
5937;SDS011;2994;51.220;4.412;2023-05-02T03:07:27;18.33;;;11.93;;
5937;SDS011;2994;51.220;4.412;2023-05-02T03:09:53;15.10;;;10.90;;
5937;SDS011;2994;51.220;4.412;2023-05-02T03:12:19;14.17;;;10.10;;
5937;SDS011;2994;51.220;4.412;2023-05-02T03:14:45;16.33;;;12.30;;
5937;SDS011;2994;51.220;4.412;2023-05-02T03:17:10;14.80;;;11.40;;
5937;SDS011;2994;51.220;4.412;2023-05-02T03:19:36;15.73;;;11.37;;
5937;SDS011;2994;51.220;4.412;2023-05-02T03:22:02;16.87;;;11.90;;
5937;SDS011;2994;51.220;4.412;2023-05-02T03:24:28;15.97;;;11.87;;
5937;SDS011;2994;51.220;4.412;2023-05-02T03:26:56;14.63;;;11.10;;
5937;SDS011;2994;51.220;4.412;2023-05-02T03:29:24;15.67;;;10.80;;
5937;SDS011;2994;51.220;4.412;2023-05-02T03:31:50;15.40;;;11.57;;
5937;SDS011;2994;51.220;4.412;2023-05-02T03:34:16;14.97;;;12.43;;
5937;SDS011;2994;51.220;4.412;2023-05-02T03:36:41;14.73;;;12.10;;
5937;SDS011;2994;51.220;4.412;2023-05-02T03:39:07;16.20;;;11.60;;
5937;SDS011;2994;51.220;4.412;2023-05-02T03:41:33;21.37;;;13.20;;
5937;SDS011;2994;51.220;4.412;2023-05-02T03:43:58;16.23;;;11.63;;
5937;SDS011;2994;51.220;4.412;2023-05-02T03:46:24;17.50;;;12.17;;
5937;SDS011;2994;51.220;4.412;2023-05-02T03:48:49;16.03;;;12.00;;
5937;SDS011;2994;51.220;4.412;2023-05-02T03:51:15;13.80;;;10.87;;
5937;SDS011;2994;51.220;4.412;2023-05-02T03:53:40;15.57;;;10.70;;
5937;SDS011;2994;51.220;4.412;2023-05-02T03:56:06;17.53;;;12.40;;
5937;SDS011;2994;51.220;4.412;2023-05-02T03:58:32;15.10;;;11.17;;
5937;SDS011;2994;51.220;4.412;2023-05-02T04:01:00;13.33;;;9.47;;
5937;SDS011;2994;51.220;4.412;2023-05-02T04:03:25;13.87;;;9.63;;
5937;SDS011;2994;51.220;4.412;2023-05-02T04:05:52;15.10;;;10.97;;
5937;SDS011;2994;51.220;4.412;2023-05-02T04:08:17;13.60;;;10.00;;
5937;SDS011;2994;51.220;4.412;2023-05-02T04:10:43;12.50;;;9.93;;
5937;SDS011;2994;51.220;4.412;2023-05-02T04:13:09;13.03;;;10.23;;
5937;SDS011;2994;51.220;4.412;2023-05-02T04:15:34;12.60;;;9.90;;
5937;SDS011;2994;51.220;4.412;2023-05-02T04:18:00;13.17;;;8.47;;
5937;SDS011;2994;51.220;4.412;2023-05-02T04:20:25;13.60;;;9.57;;
5937;SDS011;2994;51.220;4.412;2023-05-02T04:22:51;17.53;;;10.27;;
5937;SDS011;2994;51.220;4.412;2023-05-02T04:25:17;15.80;;;10.07;;
5937;SDS011;2994;51.220;4.412;2023-05-02T04:27:42;13.23;;;9.17;;
5937;SDS011;2994;51.220;4.412;2023-05-02T04:30:08;14.47;;;10.30;;
5937;SDS011;2994;51.220;4.412;2023-05-02T04:32:36;12.83;;;8.70;;
5937;SDS011;2994;51.220;4.412;2023-05-02T04:35:02;9.53;;;8.00;;
5937;SDS011;2994;51.220;4.412;2023-05-02T04:37:28;11.20;;;8.97;;
5937;SDS011;2994;51.220;4.412;2023-05-02T04:39:53;9.43;;;7.77;;
5937;SDS011;2994;51.220;4.412;2023-05-02T04:42:19;10.60;;;9.50;;
5937;SDS011;2994;51.220;4.412;2023-05-02T04:44:44;8.83;;;7.80;;
5937;SDS011;2994;51.220;4.412;2023-05-02T04:47:10;12.30;;;8.90;;
5937;SDS011;2994;51.220;4.412;2023-05-02T04:49:36;14.50;;;9.93;;
5937;SDS011;2994;51.220;4.412;2023-05-02T04:52:01;12.73;;;8.37;;
5937;SDS011;2994;51.220;4.412;2023-05-02T04:54:27;11.93;;;9.50;;
5937;SDS011;2994;51.220;4.412;2023-05-02T04:56:52;15.67;;;9.93;;
5937;SDS011;2994;51.220;4.412;2023-05-02T04:59:17;13.73;;;11.13;;
5937;SDS011;2994;51.220;4.412;2023-05-02T05:01:43;15.53;;;11.37;;
5937;SDS011;2994;51.220;4.412;2023-05-02T05:04:09;16.30;;;11.60;;
5937;SDS011;2994;51.220;4.412;2023-05-02T05:06:35;14.13;;;11.40;;
5937;SDS011;2994;51.220;4.412;2023-05-02T05:09:00;12.90;;;10.47;;
5937;SDS011;2994;51.220;4.412;2023-05-02T05:11:26;14.10;;;10.23;;
5937;SDS011;2994;51.220;4.412;2023-05-02T05:13:51;14.20;;;11.50;;
5937;SDS011;2994;51.220;4.412;2023-05-02T05:16:17;14.30;;;12.13;;
5937;SDS011;2994;51.220;4.412;2023-05-02T05:18:42;16.93;;;12.87;;
5937;SDS011;2994;51.220;4.412;2023-05-02T05:21:08;16.50;;;13.73;;
5937;SDS011;2994;51.220;4.412;2023-05-02T05:23:35;16.53;;;13.13;;
5937;SDS011;2994;51.220;4.412;2023-05-02T05:26:11;17.60;;;14.07;;
5937;SDS011;2994;51.220;4.412;2023-05-02T05:28:37;17.90;;;14.00;;
5937;SDS011;2994;51.220;4.412;2023-05-02T05:31:04;15.30;;;13.10;;
5937;SDS011;2994;51.220;4.412;2023-05-02T05:33:33;14.73;;;13.10;;
5937;SDS011;2994;51.220;4.412;2023-05-02T05:36:06;17.23;;;11.73;;
5937;SDS011;2994;51.220;4.412;2023-05-02T05:38:32;14.70;;;11.07;;
5937;SDS011;2994;51.220;4.412;2023-05-02T05:40:58;15.43;;;11.50;;
5937;SDS011;2994;51.220;4.412;2023-05-02T05:43:23;11.70;;;10.00;;
5937;SDS011;2994;51.220;4.412;2023-05-02T05:45:53;11.97;;;9.47;;
5937;SDS011;2994;51.220;4.412;2023-05-02T05:48:19;10.47;;;8.07;;
5937;SDS011;2994;51.220;4.412;2023-05-02T05:50:45;12.30;;;8.37;;
5937;SDS011;2994;51.220;4.412;2023-05-02T05:53:11;10.03;;;7.90;;
5937;SDS011;2994;51.220;4.412;2023-05-02T05:55:37;10.70;;;7.87;;
5937;SDS011;2994;51.220;4.412;2023-05-02T05:58:03;10.43;;;7.90;;
5937;SDS011;2994;51.220;4.412;2023-05-02T06:00:29;10.23;;;7.10;;
5937;SDS011;2994;51.220;4.412;2023-05-02T06:02:55;9.07;;;6.73;;
5937;SDS011;2994;51.220;4.412;2023-05-02T06:05:20;8.37;;;6.77;;
5937;SDS011;2994;51.220;4.412;2023-05-02T06:07:46;6.20;;;5.60;;
5937;SDS011;2994;51.220;4.412;2023-05-02T06:10:11;6.10;;;4.80;;
5937;SDS011;2994;51.220;4.412;2023-05-02T06:12:37;8.73;;;6.33;;
5937;SDS011;2994;51.220;4.412;2023-05-02T06:15:02;6.10;;;4.80;;
5937;SDS011;2994;51.220;4.412;2023-05-02T06:17:28;6.70;;;4.77;;
5937;SDS011;2994;51.220;4.412;2023-05-02T06:19:54;7.60;;;3.73;;
5937;SDS011;2994;51.220;4.412;2023-05-02T06:22:19;4.00;;;3.20;;
5937;SDS011;2994;51.220;4.412;2023-05-02T06:24:44;5.97;;;3.23;;
5937;SDS011;2994;51.220;4.412;2023-05-02T06:27:10;5.70;;;3.23;;
5937;SDS011;2994;51.220;4.412;2023-05-02T06:29:35;7.17;;;3.60;;
5937;SDS011;2994;51.220;4.412;2023-05-02T06:32:01;6.33;;;4.50;;
5937;SDS011;2994;51.220;4.412;2023-05-02T06:34:28;5.83;;;4.60;;
5937;SDS011;2994;51.220;4.412;2023-05-02T06:36:57;3.93;;;3.53;;
5937;SDS011;2994;51.220;4.412;2023-05-02T06:39:22;7.07;;;3.60;;
5937;SDS011;2994;51.220;4.412;2023-05-02T06:41:47;5.20;;;3.23;;
5937;SDS011;2994;51.220;4.412;2023-05-02T06:44:13;4.67;;;3.47;;
5937;SDS011;2994;51.220;4.412;2023-05-02T06:46:38;3.13;;;2.90;;
5937;SDS011;2994;51.220;4.412;2023-05-02T06:49:04;7.00;;;4.00;;
5937;SDS011;2994;51.220;4.412;2023-05-02T06:51:29;4.97;;;3.13;;
5937;SDS011;2994;51.220;4.412;2023-05-02T06:53:56;4.13;;;2.77;;
5937;SDS011;2994;51.220;4.412;2023-05-02T06:56:22;5.30;;;3.07;;
5937;SDS011;2994;51.220;4.412;2023-05-02T06:58:51;5.43;;;3.70;;
5937;SDS011;2994;51.220;4.412;2023-05-02T07:01:16;6.80;;;5.20;;
5937;SDS011;2994;51.220;4.412;2023-05-02T07:03:42;6.63;;;5.00;;
5937;SDS011;2994;51.220;4.412;2023-05-02T07:06:07;6.03;;;5.00;;
5937;SDS011;2994;51.220;4.412;2023-05-02T07:08:33;5.30;;;4.13;;
5937;SDS011;2994;51.220;4.412;2023-05-02T07:10:59;6.07;;;4.70;;
5937;SDS011;2994;51.220;4.412;2023-05-02T07:13:25;6.00;;;4.20;;
5937;SDS011;2994;51.220;4.412;2023-05-02T07:15:50;4.67;;;3.83;;
5937;SDS011;2994;51.220;4.412;2023-05-02T07:18:16;5.53;;;3.83;;
5937;SDS011;2994;51.220;4.412;2023-05-02T07:20:42;4.93;;;4.43;;
5937;SDS011;2994;51.220;4.412;2023-05-02T07:23:07;8.50;;;4.30;;
5937;SDS011;2994;51.220;4.412;2023-05-02T07:25:33;6.00;;;4.00;;
5937;SDS011;2994;51.220;4.412;2023-05-02T07:27:59;3.73;;;3.43;;
5937;SDS011;2994;51.220;4.412;2023-05-02T07:30:24;4.03;;;3.20;;
5937;SDS011;2994;51.220;4.412;2023-05-02T07:32:50;3.87;;;2.87;;
5937;SDS011;2994;51.220;4.412;2023-05-02T07:35:15;5.80;;;4.50;;
5937;SDS011;2994;51.220;4.412;2023-05-02T07:37:41;4.73;;;4.00;;
5937;SDS011;2994;51.220;4.412;2023-05-02T07:40:06;3.67;;;3.03;;
5937;SDS011;2994;51.220;4.412;2023-05-02T07:42:33;5.60;;;2.70;;
5937;SDS011;2994;51.220;4.412;2023-05-02T07:44:59;5.17;;;2.40;;
5937;SDS011;2994;51.220;4.412;2023-05-02T07:47:25;5.80;;;2.50;;
5937;SDS011;2994;51.220;4.412;2023-05-02T07:49:54;4.63;;;2.33;;
5937;SDS011;2994;51.220;4.412;2023-05-02T07:52:20;5.20;;;2.40;;
5937;SDS011;2994;51.220;4.412;2023-05-02T07:54:49;3.70;;;2.33;;
5937;SDS011;2994;51.220;4.412;2023-05-02T07:57:16;3.10;;;2.80;;
5937;SDS011;2994;51.220;4.412;2023-05-02T07:59:42;4.17;;;2.80;;
5937;SDS011;2994;51.220;4.412;2023-05-02T08:02:07;6.20;;;3.33;;
5937;SDS011;2994;51.220;4.412;2023-05-02T08:04:33;5.77;;;3.57;;
5937;SDS011;2994;51.220;4.412;2023-05-02T08:06:58;5.27;;;3.20;;
5937;SDS011;2994;51.220;4.412;2023-05-02T08:09:24;7.03;;;5.73;;
5937;SDS011;2994;51.220;4.412;2023-05-02T08:11:50;6.73;;;6.03;;
5937;SDS011;2994;51.220;4.412;2023-05-02T08:14:15;6.53;;;5.03;;
5937;SDS011;2994;51.220;4.412;2023-05-02T08:16:41;6.77;;;6.00;;
5937;SDS011;2994;51.220;4.412;2023-05-02T08:19:07;5.47;;;4.90;;
5937;SDS011;2994;51.220;4.412;2023-05-02T08:21:32;7.67;;;5.27;;
5937;SDS011;2994;51.220;4.412;2023-05-02T08:23:58;5.97;;;5.03;;
5937;SDS011;2994;51.220;4.412;2023-05-02T08:26:24;11.07;;;5.37;;
5937;SDS011;2994;51.220;4.412;2023-05-02T08:28:51;6.73;;;5.10;;
5937;SDS011;2994;51.220;4.412;2023-05-02T08:31:17;11.87;;;5.80;;
5937;SDS011;2994;51.220;4.412;2023-05-02T08:33:42;9.33;;;5.10;;
5937;SDS011;2994;51.220;4.412;2023-05-02T08:36:11;6.33;;;5.07;;
5937;SDS011;2994;51.220;4.412;2023-05-02T08:38:38;6.73;;;4.67;;
5937;SDS011;2994;51.220;4.412;2023-05-02T08:41:13;6.80;;;5.60;;
5937;SDS011;2994;51.220;4.412;2023-05-02T08:43:40;6.80;;;5.20;;
5937;SDS011;2994;51.220;4.412;2023-05-02T08:46:07;7.90;;;6.30;;
5937;SDS011;2994;51.220;4.412;2023-05-02T08:48:36;7.07;;;6.17;;
5937;SDS011;2994;51.220;4.412;2023-05-02T08:51:09;8.17;;;7.20;;
5937;SDS011;2994;51.220;4.412;2023-05-02T08:53:36;7.60;;;6.90;;
5937;SDS011;2994;51.220;4.412;2023-05-02T08:56:04;6.53;;;5.90;;
5937;SDS011;2994;51.220;4.412;2023-05-02T08:58:30;11.77;;;8.07;;
5937;SDS011;2994;51.220;4.412;2023-05-02T09:00:57;7.57;;;6.43;;
5937;SDS011;2994;51.220;4.412;2023-05-02T09:06:02;8.30;;;5.53;;
5937;SDS011;2994;51.220;4.412;2023-05-02T09:08:28;9.60;;;5.40;;
5937;SDS011;2994;51.220;4.412;2023-05-02T09:10:54;6.33;;;4.23;;
5937;SDS011;2994;51.220;4.412;2023-05-02T09:16:02;6.73;;;4.93;;
5937;SDS011;2994;51.220;4.412;2023-05-02T09:18:33;8.47;;;3.57;;
5937;SDS011;2994;51.220;4.412;2023-05-02T09:21:03;10.60;;;3.50;;
5937;SDS011;2994;51.220;4.412;2023-05-02T09:23:52;7.80;;;5.07;;
5937;SDS011;2994;51.220;4.412;2023-05-02T09:26:21;6.63;;;4.10;;
5937;SDS011;2994;51.220;4.412;2023-05-02T09:28:53;7.10;;;4.37;;
5937;SDS011;2994;51.220;4.412;2023-05-02T09:31:23;4.73;;;3.83;;
5937;SDS011;2994;51.220;4.412;2023-05-02T09:34:06;6.47;;;4.87;;
5937;SDS011;2994;51.220;4.412;2023-05-02T09:36:39;7.00;;;5.13;;
5937;SDS011;2994;51.220;4.412;2023-05-02T09:39:08;8.90;;;4.63;;
5937;SDS011;2994;51.220;4.412;2023-05-02T09:41:38;6.47;;;5.00;;
5937;SDS011;2994;51.220;4.412;2023-05-02T09:44:05;5.00;;;4.40;;
5937;SDS011;2994;51.220;4.412;2023-05-02T09:46:40;7.40;;;4.40;;
5937;SDS011;2994;51.220;4.412;2023-05-02T09:49:09;4.97;;;4.23;;
5937;SDS011;2994;51.220;4.412;2023-05-02T09:51:35;5.23;;;4.33;;
5937;SDS011;2994;51.220;4.412;2023-05-02T09:54:00;11.07;;;4.67;;
5937;SDS011;2994;51.220;4.412;2023-05-02T09:56:26;8.33;;;4.40;;
5937;SDS011;2994;51.220;4.412;2023-05-02T09:59:10;4.43;;;4.00;;
5937;SDS011;2994;51.220;4.412;2023-05-02T10:01:37;7.40;;;5.23;;
5937;SDS011;2994;51.220;4.412;2023-05-02T10:04:05;4.53;;;4.13;;
5937;SDS011;2994;51.220;4.412;2023-05-02T10:06:42;8.93;;;4.53;;
5937;SDS011;2994;51.220;4.412;2023-05-02T10:09:08;7.50;;;4.30;;
5937;SDS011;2994;51.220;4.412;2023-05-02T10:11:36;9.87;;;4.70;;
5937;SDS011;2994;51.220;4.412;2023-05-02T10:14:04;5.40;;;3.77;;
5937;SDS011;2994;51.220;4.412;2023-05-02T10:16:33;4.03;;;3.63;;
5937;SDS011;2994;51.220;4.412;2023-05-02T10:21:27;6.00;;;4.40;;
5937;SDS011;2994;51.220;4.412;2023-05-02T10:23:54;5.53;;;3.10;;
5937;SDS011;2994;51.220;4.412;2023-05-02T10:26:20;3.80;;;3.33;;
5937;SDS011;2994;51.220;4.412;2023-05-02T10:28:47;4.07;;;3.10;;
5937;SDS011;2994;51.220;4.412;2023-05-02T10:31:13;7.83;;;4.07;;
5937;SDS011;2994;51.220;4.412;2023-05-02T10:33:40;6.67;;;3.97;;
5937;SDS011;2994;51.220;4.412;2023-05-02T10:36:06;4.57;;;3.27;;
5937;SDS011;2994;51.220;4.412;2023-05-02T10:38:37;5.30;;;3.50;;
5937;SDS011;2994;51.220;4.412;2023-05-02T10:41:22;3.70;;;3.37;;
5937;SDS011;2994;51.220;4.412;2023-05-02T10:43:50;7.27;;;4.17;;
5937;SDS011;2994;51.220;4.412;2023-05-02T10:46:30;4.93;;;3.60;;
5937;SDS011;2994;51.220;4.412;2023-05-02T10:49:00;4.63;;;3.57;;
5937;SDS011;2994;51.220;4.412;2023-05-02T10:51:27;7.30;;;4.13;;
5937;SDS011;2994;51.220;4.412;2023-05-02T10:59:31;7.77;;;4.10;;
5937;SDS011;2994;51.220;4.412;2023-05-02T11:01:58;6.63;;;4.57;;
5937;SDS011;2994;51.220;4.412;2023-05-02T11:04:25;6.40;;;4.20;;
5937;SDS011;2994;51.220;4.412;2023-05-02T11:07:17;6.30;;;4.67;;
5937;SDS011;2994;51.220;4.412;2023-05-02T11:09:43;5.70;;;3.90;;
5937;SDS011;2994;51.220;4.412;2023-05-02T11:12:08;7.50;;;4.70;;
5937;SDS011;2994;51.220;4.412;2023-05-02T11:24:43;9.57;;;4.40;;
5937;SDS011;2994;51.220;4.412;2023-05-02T11:30:08;7.97;;;4.20;;
5937;SDS011;2994;51.220;4.412;2023-05-02T11:35:20;4.37;;;3.90;;
5937;SDS011;2994;51.220;4.412;2023-05-02T11:37:55;4.97;;;4.30;;
5937;SDS011;2994;51.220;4.412;2023-05-02T11:40:28;6.30;;;3.70;;
5937;SDS011;2994;51.220;4.412;2023-05-02T11:42:54;4.70;;;4.17;;
5937;SDS011;2994;51.220;4.412;2023-05-02T11:45:21;5.50;;;4.17;;
5937;SDS011;2994;51.220;4.412;2023-05-02T11:47:48;4.37;;;3.97;;
5937;SDS011;2994;51.220;4.412;2023-05-02T11:50:15;5.20;;;4.23;;
5937;SDS011;2994;51.220;4.412;2023-05-02T11:52:42;7.73;;;4.07;;
5937;SDS011;2994;51.220;4.412;2023-05-02T11:55:12;5.37;;;3.93;;
5937;SDS011;2994;51.220;4.412;2023-05-02T11:57:39;5.27;;;3.90;;
5937;SDS011;2994;51.220;4.412;2023-05-02T12:00:05;5.00;;;3.93;;
5937;SDS011;2994;51.220;4.412;2023-05-02T12:02:44;4.83;;;3.40;;
5937;SDS011;2994;51.220;4.412;2023-05-02T12:05:12;6.40;;;3.70;;
5937;SDS011;2994;51.220;4.412;2023-05-02T12:07:39;4.40;;;3.80;;
5937;SDS011;2994;51.220;4.412;2023-05-02T12:10:06;6.03;;;3.97;;
5937;SDS011;2994;51.220;4.412;2023-05-02T12:12:33;5.80;;;4.07;;
5937;SDS011;2994;51.220;4.412;2023-05-02T12:15:04;4.23;;;3.40;;
5937;SDS011;2994;51.220;4.412;2023-05-02T12:17:31;6.53;;;4.30;;
5937;SDS011;2994;51.220;4.412;2023-05-02T12:19:58;5.20;;;3.67;;
5937;SDS011;2994;51.220;4.412;2023-05-02T12:22:25;5.90;;;3.30;;
5937;SDS011;2994;51.220;4.412;2023-05-02T12:24:50;9.50;;;3.70;;
5937;SDS011;2994;51.220;4.412;2023-05-02T12:27:17;5.33;;;3.70;;
5937;SDS011;2994;51.220;4.412;2023-05-02T12:29:47;5.30;;;3.63;;
5937;SDS011;2994;51.220;4.412;2023-05-02T12:32:13;6.83;;;3.80;;
5937;SDS011;2994;51.220;4.412;2023-05-02T12:34:40;6.90;;;3.47;;
5937;SDS011;2994;51.220;4.412;2023-05-02T12:37:06;4.73;;;3.90;;
5937;SDS011;2994;51.220;4.412;2023-05-02T12:39:39;5.47;;;4.17;;
5937;SDS011;2994;51.220;4.412;2023-05-02T12:42:13;5.27;;;4.30;;
5937;SDS011;2994;51.220;4.412;2023-05-02T12:44:41;5.07;;;3.60;;
5937;SDS011;2994;51.220;4.412;2023-05-02T12:47:09;4.67;;;4.10;;
5937;SDS011;2994;51.220;4.412;2023-05-02T12:49:49;4.80;;;3.87;;
5937;SDS011;2994;51.220;4.412;2023-05-02T12:52:15;4.80;;;2.90;;
5937;SDS011;2994;51.220;4.412;2023-05-02T12:54:41;4.40;;;3.97;;
5937;SDS011;2994;51.220;4.412;2023-05-02T12:57:06;5.37;;;4.37;;
5937;SDS011;2994;51.220;4.412;2023-05-02T12:59:32;5.77;;;5.07;;
5937;SDS011;2994;51.220;4.412;2023-05-02T13:01:58;5.67;;;4.07;;
5937;SDS011;2994;51.220;4.412;2023-05-02T13:04:36;5.70;;;4.67;;
5937;SDS011;2994;51.220;4.412;2023-05-02T13:07:06;8.47;;;4.80;;
5937;SDS011;2994;51.220;4.412;2023-05-02T13:09:32;5.23;;;4.73;;
5937;SDS011;2994;51.220;4.412;2023-05-02T13:11:57;5.00;;;4.60;;
5937;SDS011;2994;51.220;4.412;2023-05-02T13:14:23;5.03;;;4.40;;
5937;SDS011;2994;51.220;4.412;2023-05-02T13:16:49;6.30;;;5.70;;
5937;SDS011;2994;51.220;4.412;2023-05-02T13:19:17;5.83;;;3.90;;
5937;SDS011;2994;51.220;4.412;2023-05-02T13:21:43;11.10;;;3.97;;
5937;SDS011;2994;51.220;4.412;2023-05-02T13:24:08;7.73;;;5.20;;
5937;SDS011;2994;51.220;4.412;2023-05-02T13:26:34;5.37;;;3.97;;
5937;SDS011;2994;51.220;4.412;2023-05-02T13:29:00;5.10;;;4.20;;
5937;SDS011;2994;51.220;4.412;2023-05-02T13:31:25;5.37;;;4.10;;
5937;SDS011;2994;51.220;4.412;2023-05-02T13:33:51;4.63;;;4.23;;
5937;SDS011;2994;51.220;4.412;2023-05-02T13:36:16;6.47;;;4.40;;
5937;SDS011;2994;51.220;4.412;2023-05-02T13:38:42;8.10;;;4.17;;
5937;SDS011;2994;51.220;4.412;2023-05-02T13:41:07;6.70;;;4.87;;
5937;SDS011;2994;51.220;4.412;2023-05-02T13:43:32;5.13;;;4.53;;
5937;SDS011;2994;51.220;4.412;2023-05-02T13:45:58;6.20;;;4.23;;
5937;SDS011;2994;51.220;4.412;2023-05-02T13:48:24;5.47;;;4.50;;
5937;SDS011;2994;51.220;4.412;2023-05-02T13:50:49;5.47;;;4.13;;
5937;SDS011;2994;51.220;4.412;2023-05-02T13:53:15;4.90;;;4.20;;
5937;SDS011;2994;51.220;4.412;2023-05-02T13:55:40;4.83;;;3.70;;
5937;SDS011;2994;51.220;4.412;2023-05-02T13:58:06;6.10;;;4.10;;
5937;SDS011;2994;51.220;4.412;2023-05-02T14:00:31;5.37;;;4.17;;
5937;SDS011;2994;51.220;4.412;2023-05-02T14:02:57;5.30;;;4.50;;
5937;SDS011;2994;51.220;4.412;2023-05-02T14:05:22;5.50;;;3.37;;
5937;SDS011;2994;51.220;4.412;2023-05-02T14:07:48;5.00;;;4.03;;
5937;SDS011;2994;51.220;4.412;2023-05-02T14:10:13;4.80;;;4.40;;
5937;SDS011;2994;51.220;4.412;2023-05-02T14:12:39;4.03;;;3.63;;
5937;SDS011;2994;51.220;4.412;2023-05-02T14:15:04;7.40;;;4.50;;
5937;SDS011;2994;51.220;4.412;2023-05-02T14:17:30;6.93;;;4.20;;
5937;SDS011;2994;51.220;4.412;2023-05-02T14:19:56;4.80;;;3.80;;
5937;SDS011;2994;51.220;4.412;2023-05-02T14:22:22;6.47;;;4.20;;
5937;SDS011;2994;51.220;4.412;2023-05-02T14:24:47;4.83;;;3.90;;
5937;SDS011;2994;51.220;4.412;2023-05-02T14:27:13;5.23;;;3.20;;
5937;SDS011;2994;51.220;4.412;2023-05-02T14:29:43;3.63;;;3.20;;
5937;SDS011;2994;51.220;4.412;2023-05-02T14:32:12;4.30;;;3.67;;
5937;SDS011;2994;51.220;4.412;2023-05-02T14:34:38;5.90;;;4.50;;
5937;SDS011;2994;51.220;4.412;2023-05-02T14:37:04;4.47;;;4.07;;
5937;SDS011;2994;51.220;4.412;2023-05-02T14:39:29;7.40;;;4.07;;
5937;SDS011;2994;51.220;4.412;2023-05-02T14:41:55;5.20;;;3.87;;
5937;SDS011;2994;51.220;4.412;2023-05-02T14:44:20;4.70;;;4.23;;
5937;SDS011;2994;51.220;4.412;2023-05-02T14:46:46;8.50;;;4.53;;
5937;SDS011;2994;51.220;4.412;2023-05-02T14:49:11;5.17;;;4.47;;
5937;SDS011;2994;51.220;4.412;2023-05-02T14:51:37;5.17;;;3.93;;
5937;SDS011;2994;51.220;4.412;2023-05-02T14:54:03;7.10;;;4.33;;
5937;SDS011;2994;51.220;4.412;2023-05-02T14:56:30;4.87;;;4.37;;
5937;SDS011;2994;51.220;4.412;2023-05-02T14:58:56;8.63;;;4.93;;
5937;SDS011;2994;51.220;4.412;2023-05-02T15:01:22;4.40;;;3.87;;
5937;SDS011;2994;51.220;4.412;2023-05-02T15:03:47;4.63;;;4.13;;
5937;SDS011;2994;51.220;4.412;2023-05-02T15:06:13;4.73;;;4.20;;
5937;SDS011;2994;51.220;4.412;2023-05-02T15:08:40;4.60;;;4.20;;
5937;SDS011;2994;51.220;4.412;2023-05-02T15:11:07;7.00;;;4.17;;
5937;SDS011;2994;51.220;4.412;2023-05-02T15:13:36;5.50;;;3.80;;
5937;SDS011;2994;51.220;4.412;2023-05-02T15:16:02;7.33;;;4.70;;
5937;SDS011;2994;51.220;4.412;2023-05-02T15:18:28;3.63;;;3.30;;
5937;SDS011;2994;51.220;4.412;2023-05-02T15:20:54;5.63;;;3.67;;
5937;SDS011;2994;51.220;4.412;2023-05-02T15:23:19;4.30;;;3.90;;
5937;SDS011;2994;51.220;4.412;2023-05-02T15:25:45;4.30;;;3.90;;
5937;SDS011;2994;51.220;4.412;2023-05-02T15:28:11;5.03;;;4.63;;
5937;SDS011;2994;51.220;4.412;2023-05-02T15:30:36;5.70;;;4.80;;
5937;SDS011;2994;51.220;4.412;2023-05-02T15:33:02;4.47;;;4.07;;
5937;SDS011;2994;51.220;4.412;2023-05-02T15:35:27;6.47;;;5.63;;
5937;SDS011;2994;51.220;4.412;2023-05-02T15:37:53;6.97;;;6.43;;
5937;SDS011;2994;51.220;4.412;2023-05-02T15:40:19;6.37;;;5.87;;
5937;SDS011;2994;51.220;4.412;2023-05-02T15:42:45;5.90;;;5.40;;
5937;SDS011;2994;51.220;4.412;2023-05-02T15:45:11;6.37;;;5.77;;
5937;SDS011;2994;51.220;4.412;2023-05-02T15:47:39;6.00;;;5.50;;
5937;SDS011;2994;51.220;4.412;2023-05-02T15:50:08;5.97;;;5.47;;
5937;SDS011;2994;51.220;4.412;2023-05-02T15:52:34;5.47;;;4.97;;